createdAt,value
2018-08-12T00:03:11.922Z,93.70
2018-08-12T00:08:16.394Z,94.40
2018-08-12T00:13:20.003Z,94.90
2018-08-12T00:18:23.648Z,95.00
2018-08-12T00:23:27.268Z,96.00
2018-08-12T00:28:30.824Z,96.50
2018-08-12T00:33:34.463Z,97.80
2018-08-12T00:38:38.049Z,98.90
2018-08-12T00:43:41.643Z,99.70
2018-08-12T00:48:45.173Z,99.90
2018-08-12T00:53:49.829Z,99.90
2018-08-12T00:58:53.512Z,99.90
2018-08-12T01:03:57.927Z,99.90
2018-08-12T01:09:02.626Z,99.90
2018-08-12T01:14:08.095Z,99.90
2018-08-12T01:19:11.716Z,99.90
2018-08-12T01:24:15.361Z,99.90
2018-08-12T01:29:18.954Z,99.90
2018-08-12T01:34:22.556Z,99.90
2018-08-12T01:39:31.548Z,99.90
2018-08-12T01:44:35.038Z,99.90
2018-08-12T01:49:40.595Z,99.90
2018-08-12T01:54:44.126Z,99.90
2018-08-12T01:59:47.595Z,99.90
2018-08-12T02:04:51.389Z,99.90
2018-08-12T02:09:55.876Z,99.90
2018-08-12T02:14:59.496Z,99.90
2018-08-12T02:20:03.156Z,99.90
2018-08-12T02:25:07.519Z,99.90
2018-08-12T02:30:13.118Z,99.90
2018-08-12T02:35:16.805Z,99.90
2018-08-12T02:40:20.455Z,99.90
2018-08-12T02:45:24.016Z,99.90
2018-08-12T02:50:29.597Z,99.90
2018-08-12T02:55:34.109Z,99.90
2018-08-12T03:00:39.168Z,99.90
2018-08-12T03:05:44.834Z,99.90
2018-08-12T03:10:48.551Z,99.90
2018-08-12T03:15:52.284Z,99.90
2018-08-12T03:20:55.822Z,99.90
2018-08-12T03:25:59.226Z,99.90
2018-08-12T03:31:10.739Z,99.90
2018-08-12T03:36:14.207Z,99.90
2018-08-12T03:41:18.889Z,99.90
2018-08-12T03:46:22.405Z,99.90
2018-08-12T03:51:26.952Z,99.90
2018-08-12T03:56:30.441Z,99.90
2018-08-12T04:01:34.008Z,99.90
2018-08-12T04:06:37.487Z,99.90
2018-08-12T04:11:41.034Z,99.90
2018-08-12T04:16:56.404Z,99.90
2018-08-12T04:22:04.718Z,99.90
2018-08-12T04:27:08.266Z,99.90
2018-08-12T04:32:11.860Z,99.90
2018-08-12T04:37:16.461Z,99.90
2018-08-12T04:42:19.963Z,99.90
2018-08-12T04:47:23.644Z,99.90
2018-08-12T04:52:27.291Z,99.90
2018-08-12T04:57:30.835Z,99.90
2018-08-12T05:02:34.423Z,99.90
2018-08-12T05:07:44.998Z,99.90
2018-08-12T05:12:48.545Z,99.90
2018-08-12T05:17:52.019Z,99.90
2018-08-12T05:22:57.868Z,99.90
2018-08-12T05:28:01.351Z,99.90
2018-08-12T05:33:05.365Z,99.90
2018-08-12T05:38:10.108Z,99.90
2018-08-12T05:43:13.524Z,99.90
2018-08-12T05:48:17.134Z,99.90
2018-08-12T05:53:20.856Z,99.90
2018-08-12T05:58:24.277Z,99.90
2018-08-12T06:03:27.867Z,99.90
2018-08-12T06:08:31.428Z,99.90
2018-08-12T06:13:36.074Z,99.90
2018-08-12T06:18:43.068Z,99.90
2018-08-12T06:23:46.636Z,99.90
2018-08-12T06:28:50.215Z,99.90
2018-08-12T06:33:54.243Z,99.90
2018-08-12T06:39:17.630Z,99.90
2018-08-12T06:44:26.913Z,99.90
2018-08-12T06:49:30.626Z,99.90
2018-08-12T06:54:34.362Z,99.90
2018-08-12T06:59:39.056Z,99.90
2018-08-12T07:04:45.958Z,99.90
2018-08-12T07:09:49.795Z,99.90
2018-08-12T07:14:53.397Z,99.90
2018-08-12T07:19:56.904Z,99.90
2018-08-12T07:25:00.611Z,99.90
2018-08-12T07:30:05.280Z,99.90
2018-08-12T07:35:09.968Z,99.40
2018-08-12T07:40:17.035Z,97.70
2018-08-12T07:45:20.565Z,96.80
2018-08-12T07:50:24.125Z,95.70
2018-08-12T07:55:28.092Z,93.60
2018-08-12T08:00:33.184Z,92.40
2018-08-12T08:05:37.918Z,91.50
2018-08-12T08:10:44.878Z,90.10
2018-08-12T08:15:51.598Z,89.30
2018-08-12T08:20:57.623Z,86.40
2018-08-12T08:31:40.363Z,83.60
2018-08-12T08:42:22.383Z,78.70
2018-08-12T08:47:29.230Z,75.80
2018-08-12T08:52:32.784Z,76.80
2018-08-12T08:57:38.467Z,73.00
2018-08-12T09:02:49.678Z,73.00
2018-08-12T09:07:58.517Z,72.70
2018-08-12T09:13:02.966Z,70.30
2018-08-12T09:18:06.914Z,66.80
2018-08-12T09:23:10.407Z,67.40
2018-08-12T09:28:14.103Z,67.10
2018-08-12T09:33:18.445Z,64.40
2018-08-12T09:38:22.146Z,65.20
2018-08-12T09:43:26.976Z,63.60
2018-08-12T09:48:32.912Z,63.40
2018-08-12T09:53:36.617Z,63.10
2018-08-12T09:58:40.146Z,61.10
2018-08-12T10:03:46.773Z,62.70
2018-08-12T10:08:50.493Z,61.70
2018-08-12T10:13:54.198Z,59.10
2018-08-12T10:18:57.786Z,59.40
2018-08-12T10:24:02.573Z,60.00
2018-08-12T10:29:10.137Z,58.30
2018-08-12T10:34:14.725Z,59.10
2018-08-12T10:39:18.971Z,58.40
2018-08-12T11:12:15.130Z,54.70
2018-08-12T11:17:18.903Z,54.70
2018-08-12T11:22:22.498Z,54.10
2018-08-12T11:27:26.124Z,53.10
2018-08-12T11:32:29.865Z,53.20
2018-08-12T11:37:34.248Z,51.20
2018-08-12T11:42:37.811Z,51.50
2018-08-12T11:47:43.012Z,51.60
2018-08-12T11:52:46.870Z,51.40
2018-08-12T11:57:51.273Z,50.80
2018-08-12T12:02:54.830Z,50.80
2018-08-12T12:07:59.788Z,51.30
2018-08-12T12:13:03.772Z,50.90
2018-08-12T12:18:07.987Z,49.70
2018-08-12T12:23:11.578Z,49.00
2018-08-12T12:28:15.594Z,49.20
2018-08-12T12:33:19.123Z,48.90
2018-08-12T12:38:24.806Z,48.30
2018-08-12T12:43:28.448Z,47.80
2018-08-12T12:48:32.096Z,48.60
2018-08-12T12:53:36.042Z,47.60
2018-08-12T12:58:39.826Z,48.10
2018-08-12T13:03:43.373Z,47.90
2018-08-12T13:08:47.399Z,47.00
2018-08-12T13:13:51.936Z,46.80
2018-08-12T13:18:55.865Z,46.40
2018-08-12T13:23:59.533Z,45.10
2018-08-12T13:29:04.854Z,45.00
2018-08-12T13:34:08.858Z,45.70
2018-08-12T13:39:14.156Z,46.40
2018-08-12T13:44:17.741Z,47.30
2018-08-12T13:49:21.488Z,47.40
2018-08-12T13:54:26.256Z,46.40
2018-08-12T13:59:33.757Z,46.90
2018-08-12T14:04:38.595Z,46.20
2018-08-12T14:09:45.928Z,46.50
2018-08-12T14:14:49.433Z,46.10
2018-08-12T14:19:52.966Z,45.10
2018-08-12T14:30:39.486Z,45.20
2018-08-12T14:35:43.123Z,45.00
2018-08-12T14:40:47.172Z,44.50
2018-08-12T14:45:51.007Z,42.70
2018-08-12T14:50:58.201Z,43.60
2018-08-12T14:56:03.912Z,42.90
2018-08-12T15:01:07.601Z,43.10
2018-08-12T15:06:11.319Z,44.40
2018-08-12T15:11:15.993Z,44.50
2018-08-12T15:16:22.529Z,42.90
2018-08-12T15:21:26.048Z,43.90
2018-08-12T15:26:35.178Z,42.50
2018-08-12T15:31:40.564Z,44.90
2018-08-12T15:36:46.392Z,44.30
2018-08-12T15:41:52.446Z,43.80
2018-08-12T15:46:56.333Z,44.70
2018-08-12T15:52:00.326Z,44.20
2018-08-12T15:57:04.334Z,44.80
2018-08-12T16:02:08.078Z,45.60
2018-08-12T16:07:12.001Z,45.20
2018-08-12T16:12:16.799Z,45.10
2018-08-12T16:17:22.062Z,45.00
2018-08-12T16:22:26.098Z,45.10
2018-08-12T16:27:30.855Z,44.60
2018-08-12T16:32:35.629Z,45.40
2018-08-12T16:37:42.180Z,45.30
2018-08-12T16:42:51.051Z,46.70
2018-08-12T16:47:55.006Z,46.40
2018-08-12T16:52:59.027Z,46.20
2018-08-12T16:58:02.895Z,45.70
2018-08-12T17:03:06.755Z,46.40
2018-08-12T17:08:12.547Z,44.70
2018-08-12T17:13:16.485Z,45.00
2018-08-12T17:18:20.556Z,45.90
2018-08-12T17:23:25.745Z,45.70
2018-08-12T17:28:30.533Z,46.40
2018-08-12T17:33:37.436Z,47.00
2018-08-12T17:38:42.966Z,48.90
2018-08-12T17:43:47.086Z,49.50
2018-08-12T17:48:51.248Z,50.10
2018-08-12T17:53:55.164Z,51.70
2018-08-12T17:58:59.507Z,52.00
2018-08-12T18:09:27.568Z,54.90
2018-08-12T18:14:41.403Z,55.70
2018-08-12T18:19:53.357Z,54.80
2018-08-12T18:24:57.843Z,55.50
2018-08-12T18:30:02.260Z,56.30
2018-08-12T18:35:12.914Z,56.90
2018-08-12T18:51:33.534Z,59.20
2018-08-12T18:56:41.172Z,60.80
2018-08-12T19:01:45.188Z,62.00
2018-08-12T19:06:49.117Z,63.10
2018-08-12T19:11:56.931Z,64.20
2018-08-12T19:17:01.028Z,65.30
2018-08-12T19:27:26.956Z,66.70
2018-08-12T19:32:33.334Z,67.60
2018-08-12T19:37:37.589Z,68.20
2018-08-12T19:42:42.025Z,68.50
2018-08-12T19:47:46.029Z,70.10
2018-08-12T19:52:53.994Z,71.30
2018-08-12T19:58:02.252Z,71.00
2018-08-12T20:03:13.597Z,71.90
2018-08-12T20:08:30.169Z,72.70
2018-08-12T20:13:35.947Z,74.20
2018-08-12T20:18:44.510Z,74.00
2018-08-12T20:23:55.816Z,74.40
2018-08-12T20:29:04.769Z,74.00
2018-08-12T20:34:11.591Z,74.70
2018-08-12T20:39:17.506Z,75.20
2018-08-12T20:44:21.706Z,75.50
2018-08-12T20:49:25.999Z,76.20
2018-08-12T20:54:41.986Z,77.30
2018-08-12T21:05:25.792Z,77.90
2018-08-12T21:10:35.579Z,78.70
2018-08-12T21:15:45.795Z,81.20
2018-08-12T21:20:49.862Z,81.40
2018-08-12T21:25:56.231Z,81.70
2018-08-12T21:31:01.959Z,82.10
2018-08-12T21:36:08.030Z,81.30
2018-08-12T21:41:12.345Z,82.20
2018-08-12T21:46:16.513Z,82.40
2018-08-12T21:51:20.123Z,83.20
2018-08-12T21:56:23.846Z,84.20
2018-08-12T22:01:27.451Z,84.30
2018-08-12T22:06:31.063Z,86.40
2018-08-12T22:11:41.127Z,87.10
2018-08-12T22:16:57.154Z,88.10
2018-08-12T22:22:01.284Z,88.60
2018-08-12T22:27:05.718Z,90.00
2018-08-12T22:32:09.884Z,90.20
2018-08-12T22:37:14.309Z,90.70
2018-08-12T22:42:19.322Z,91.10
2018-08-12T22:47:23.206Z,91.80
2018-08-12T22:52:30.748Z,92.00
2018-08-12T22:57:34.832Z,93.00
2018-08-12T23:08:11.351Z,94.90
2018-08-12T23:13:15.515Z,96.10
